Weather at New Smyrna Beach Municipal Airport

Public forecast

Using degrees Fahrenheit for public forecast. Weather courtesy of forecast.io.

Current aviation weather report (METAR) for New Smyrna Beach Municipal Airport

2024/04/24 11:47 (retrieved 33 minutes ago)

KEVB 241147Z 00000KT 10SM CLR 14/14 A3017

Closest aviation forecast (TAF) to New Smyrna Beach Municipal Airport

Closest forecast is Daytona Beach International Airport, 9.4 nm (17.4 km) NW.

2024/04/24 12:39 (retrieved 0 seconds ago)

TAF KDAB 241132Z 2412/2512 VRB03KT P6SM SKC FM241500 09007KT P6SM SKC FM250000 VRB04KT P6SM SKC